sensor_id;sensor_type;location;lat;lon;timestamp;pressure;altitude;pressure_sealevel;temperature;humidity
15678;BME280;7939;50.814;6.368;2022-10-24T00:01:09;98990.03;;;18.77;65.20
15678;BME280;7939;50.814;6.368;2022-10-24T00:03:37;98992.63;;;18.77;64.84
15678;BME280;7939;50.814;6.368;2022-10-24T00:06:04;98989.94;;;18.78;64.54
15678;BME280;7939;50.814;6.368;2022-10-24T00:08:31;98996.84;;;18.79;64.80
15678;BME280;7939;50.814;6.368;2022-10-24T00:10:58;98990.78;;;18.79;64.96
15678;BME280;7939;50.814;6.368;2022-10-24T00:13:24;98982.25;;;18.77;64.84
15678;BME280;7939;50.814;6.368;2022-10-24T00:15:52;98978.75;;;18.78;64.40
15678;BME280;7939;50.814;6.368;2022-10-24T00:18:19;98978.72;;;18.79;64.68
15678;BME280;7939;50.814;6.368;2022-10-24T00:20:45;98973.59;;;18.78;63.94
15678;BME280;7939;50.814;6.368;2022-10-24T00:23:12;98984.78;;;18.78;64.87
15678;BME280;7939;50.814;6.368;2022-10-24T00:25:39;98977.00;;;18.78;64.62
15678;BME280;7939;50.814;6.368;2022-10-24T00:28:06;98964.06;;;18.78;64.20
15678;BME280;7939;50.814;6.368;2022-10-24T00:30:32;98965.81;;;18.78;64.64
15678;BME280;7939;50.814;6.368;2022-10-24T00:33:00;98975.25;;;18.79;63.74
15678;BME280;7939;50.814;6.368;2022-10-24T00:35:27;98979.47;;;18.81;63.38
15678;BME280;7939;50.814;6.368;2022-10-24T00:37:54;98969.94;;;18.82;64.24
15678;BME280;7939;50.814;6.368;2022-10-24T00:40:21;98963.84;;;18.83;64.06
15678;BME280;7939;50.814;6.368;2022-10-24T00:42:48;98957.84;;;18.82;63.95
15678;BME280;7939;50.814;6.368;2022-10-24T00:45:39;98955.25;;;18.82;64.07
15678;BME280;7939;50.814;6.368;2022-10-24T00:48:15;98952.66;;;18.82;64.36
15678;BME280;7939;50.814;6.368;2022-10-24T00:50:43;98948.31;;;18.83;63.75
15678;BME280;7939;50.814;6.368;2022-10-24T00:53:11;98946.72;;;18.80;63.54
15678;BME280;7939;50.814;6.368;2022-10-24T00:55:37;98941.47;;;18.82;64.19
15678;BME280;7939;50.814;6.368;2022-10-24T00:58:05;98935.47;;;18.81;63.40
15678;BME280;7939;50.814;6.368;2022-10-24T01:00:34;98932.78;;;18.83;63.33
15678;BME280;7939;50.814;6.368;2022-10-24T01:03:01;98937.22;;;18.81;63.81
15678;BME280;7939;50.814;6.368;2022-10-24T01:05:36;98921.53;;;18.84;63.55
15678;BME280;7939;50.814;6.368;2022-10-24T01:08:12;98933.72;;;18.82;63.27
15678;BME280;7939;50.814;6.368;2022-10-24T01:10:50;98921.69;;;18.81;63.26
15678;BME280;7939;50.814;6.368;2022-10-24T01:13:26;98926.03;;;18.80;63.82
15678;BME280;7939;50.814;6.368;2022-10-24T01:16:02;98915.66;;;18.80;64.05
15678;BME280;7939;50.814;6.368;2022-10-24T01:18:32;98902.66;;;18.82;62.84
15678;BME280;7939;50.814;6.368;2022-10-24T01:21:12;98917.34;;;18.81;63.64
15678;BME280;7939;50.814;6.368;2022-10-24T01:23:56;98905.38;;;18.79;63.62
15678;BME280;7939;50.814;6.368;2022-10-24T01:26:53;98907.06;;;18.80;63.32
15678;BME280;7939;50.814;6.368;2022-10-24T01:29:49;98908.75;;;18.81;63.10
15678;BME280;7939;50.814;6.368;2022-10-24T01:32:29;98899.13;;;18.83;63.68
15678;BME280;7939;50.814;6.368;2022-10-24T01:35:00;98878.44;;;18.83;63.49
15678;BME280;7939;50.814;6.368;2022-10-24T01:37:32;98884.44;;;18.83;62.15
15678;BME280;7939;50.814;6.368;2022-10-24T01:40:06;98890.53;;;18.82;63.23
15678;BME280;7939;50.814;6.368;2022-10-24T01:42:35;98874.16;;;18.82;63.61
15678;BME280;7939;50.814;6.368;2022-10-24T01:45:06;98863.94;;;18.79;62.22
15678;BME280;7939;50.814;6.368;2022-10-24T01:47:38;98871.66;;;18.80;62.63
15678;BME280;7939;50.814;6.368;2022-10-24T01:50:11;98874.31;;;18.79;63.29
15678;BME280;7939;50.814;6.368;2022-10-24T01:52:41;98862.16;;;18.81;62.23
15678;BME280;7939;50.814;6.368;2022-10-24T01:55:09;98864.81;;;18.79;62.61
15678;BME280;7939;50.814;6.368;2022-10-24T01:57:37;98859.56;;;18.81;63.01
15678;BME280;7939;50.814;6.368;2022-10-24T02:00:07;98856.06;;;18.82;62.67
15678;BME280;7939;50.814;6.368;2022-10-24T02:02:38;98859.47;;;18.82;63.06
15678;BME280;7939;50.814;6.368;2022-10-24T02:05:10;98877.59;;;18.82;62.61
15678;BME280;7939;50.814;6.368;2022-10-24T02:07:41;98854.38;;;18.81;61.67
15678;BME280;7939;50.814;6.368;2022-10-24T02:10:11;98857.88;;;18.80;61.73
15678;BME280;7939;50.814;6.368;2022-10-24T02:12:45;98856.06;;;18.82;62.15
15678;BME280;7939;50.814;6.368;2022-10-24T02:15:18;98854.38;;;18.81;62.04
15678;BME280;7939;50.814;6.368;2022-10-24T02:17:47;98869.06;;;18.80;62.37
15678;BME280;7939;50.814;6.368;2022-10-24T02:20:14;98858.63;;;18.82;62.47
15678;BME280;7939;50.814;6.368;2022-10-24T02:22:46;98839.59;;;18.83;62.27
15678;BME280;7939;50.814;6.368;2022-10-24T02:25:18;98846.44;;;18.84;61.74
15678;BME280;7939;50.814;6.368;2022-10-24T02:27:52;98849.88;;;18.84;62.38
15678;BME280;7939;50.814;6.368;2022-10-24T02:30:23;98848.94;;;18.85;61.46
15678;BME280;7939;50.814;6.368;2022-10-24T02:32:53;98842.09;;;18.84;61.88
15678;BME280;7939;50.814;6.368;2022-10-24T02:35:25;98851.53;;;18.85;60.69
15678;BME280;7939;50.814;6.368;2022-10-24T02:37:54;98848.06;;;18.86;61.50
15678;BME280;7939;50.814;6.368;2022-10-24T02:40:23;98838.75;;;18.82;61.22
15678;BME280;7939;50.814;6.368;2022-10-24T02:42:52;98834.34;;;18.84;60.91
15678;BME280;7939;50.814;6.368;2022-10-24T02:45:23;98851.53;;;18.85;60.71
15678;BME280;7939;50.814;6.368;2022-10-24T02:47:54;98836.94;;;18.84;60.93
15678;BME280;7939;50.814;6.368;2022-10-24T02:50:22;98835.16;;;18.85;60.87
15678;BME280;7939;50.814;6.368;2022-10-24T02:52:49;98818.13;;;18.81;61.31
15678;BME280;7939;50.814;6.368;2022-10-24T02:55:16;98822.19;;;18.86;60.59
15678;BME280;7939;50.814;6.368;2022-10-24T02:57:42;98824.81;;;18.85;61.02
15678;BME280;7939;50.814;6.368;2022-10-24T03:00:10;98844.78;;;18.83;61.72
15678;BME280;7939;50.814;6.368;2022-10-24T03:02:38;98818.88;;;18.83;60.99
15678;BME280;7939;50.814;6.368;2022-10-24T03:05:05;98826.66;;;18.83;60.80
15678;BME280;7939;50.814;6.368;2022-10-24T03:07:32;98839.59;;;18.83;61.09
15678;BME280;7939;50.814;6.368;2022-10-24T03:09:59;98835.25;;;18.83;61.00
15678;BME280;7939;50.814;6.368;2022-10-24T03:12:26;98828.41;;;18.82;61.42
15678;BME280;7939;50.814;6.368;2022-10-24T03:14:53;98824.16;;;18.81;60.16
15678;BME280;7939;50.814;6.368;2022-10-24T03:17:20;98830.25;;;18.80;60.87
15678;BME280;7939;50.814;6.368;2022-10-24T03:19:48;98841.34;;;18.82;60.56
15678;BME280;7939;50.814;6.368;2022-10-24T03:22:15;98815.53;;;18.81;60.67
15678;BME280;7939;50.814;6.368;2022-10-24T03:24:42;98832.84;;;18.80;60.75
15678;BME280;7939;50.814;6.368;2022-10-24T03:27:08;98820.81;;;18.79;61.07
15678;BME280;7939;50.814;6.368;2022-10-24T03:29:35;98827.66;;;18.80;60.08
15678;BME280;7939;50.814;6.368;2022-10-24T03:32:02;98825.91;;;18.81;60.65
15678;BME280;7939;50.814;6.368;2022-10-24T03:34:29;98825.91;;;18.81;59.99
15678;BME280;7939;50.814;6.368;2022-10-24T03:36:57;98827.72;;;18.79;60.28
15678;BME280;7939;50.814;6.368;2022-10-24T03:39:24;98830.25;;;18.80;60.17
15678;BME280;7939;50.814;6.368;2022-10-24T03:41:51;98810.38;;;18.81;60.64
15678;BME280;7939;50.814;6.368;2022-10-24T03:44:18;98823.41;;;18.79;60.41
15678;BME280;7939;50.814;6.368;2022-10-24T03:46:44;98816.53;;;18.78;60.35
15678;BME280;7939;50.814;6.368;2022-10-24T03:49:11;98814.84;;;18.77;59.89
15678;BME280;7939;50.814;6.368;2022-10-24T03:51:37;98815.63;;;18.79;59.88
15678;BME280;7939;50.814;6.368;2022-10-24T03:54:05;98824.28;;;18.78;60.08
15678;BME280;7939;50.814;6.368;2022-10-24T03:56:32;98819.28;;;18.75;60.29
15678;BME280;7939;50.814;6.368;2022-10-24T03:58:59;98837.31;;;18.77;60.33
15678;BME280;7939;50.814;6.368;2022-10-24T04:01:25;98826.94;;;18.77;60.32
15678;BME280;7939;50.814;6.368;2022-10-24T04:03:52;98830.47;;;18.76;60.57
15678;BME280;7939;50.814;6.368;2022-10-24T04:06:18;98828.72;;;18.76;60.16
15678;BME280;7939;50.814;6.368;2022-10-24T04:08:45;98836.47;;;18.76;60.40
15678;BME280;7939;50.814;6.368;2022-10-24T04:11:13;98840.91;;;18.74;60.30
15678;BME280;7939;50.814;6.368;2022-10-24T04:13:40;98843.41;;;18.76;61.06
15678;BME280;7939;50.814;6.368;2022-10-24T04:16:07;98846.91;;;18.75;60.70
15678;BME280;7939;50.814;6.368;2022-10-24T04:18:34;98854.75;;;18.73;61.15
15678;BME280;7939;50.814;6.368;2022-10-24T04:21:01;98854.59;;;18.76;59.99
15678;BME280;7939;50.814;6.368;2022-10-24T04:23:28;98855.50;;;18.75;60.53
15678;BME280;7939;50.814;6.368;2022-10-24T04:25:58;98863.28;;;18.75;60.12
15678;BME280;7939;50.814;6.368;2022-10-24T04:28:27;98865.09;;;18.73;60.66
15678;BME280;7939;50.814;6.368;2022-10-24T04:30:54;98870.41;;;18.70;60.39
15678;BME280;7939;50.814;6.368;2022-10-24T04:33:22;98871.16;;;18.72;60.75
15678;BME280;7939;50.814;6.368;2022-10-24T04:35:50;98888.41;;;18.73;60.70
15678;BME280;7939;50.814;6.368;2022-10-24T04:38:17;98880.69;;;18.72;60.77
15678;BME280;7939;50.814;6.368;2022-10-24T04:40:45;98884.09;;;18.72;60.47
15678;BME280;7939;50.814;6.368;2022-10-24T04:43:12;98874.69;;;18.71;60.82
15678;BME280;7939;50.814;6.368;2022-10-24T04:45:40;98886.69;;;18.72;60.44
15678;BME280;7939;50.814;6.368;2022-10-24T04:48:07;98876.44;;;18.71;60.55
15678;BME280;7939;50.814;6.368;2022-10-24T04:50:34;98884.19;;;18.71;60.93
15678;BME280;7939;50.814;6.368;2022-10-24T04:53:01;98885.09;;;18.70;60.91
15678;BME280;7939;50.814;6.368;2022-10-24T04:55:27;98880.75;;;18.70;60.98
15678;BME280;7939;50.814;6.368;2022-10-24T04:57:54;98896.47;;;18.67;60.74
15678;BME280;7939;50.814;6.368;2022-10-24T05:00:21;98899.03;;;18.67;60.60
15678;BME280;7939;50.814;6.368;2022-10-24T05:02:49;98899.03;;;18.67;60.95
15678;BME280;7939;50.814;6.368;2022-10-24T05:05:16;98887.78;;;18.68;61.11
15678;BME280;7939;50.814;6.368;2022-10-24T05:07:43;98907.66;;;18.68;60.83
15678;BME280;7939;50.814;6.368;2022-10-24T05:10:11;98907.66;;;18.68;61.50
15678;BME280;7939;50.814;6.368;2022-10-24T05:12:38;98894.72;;;18.66;60.94
15678;BME280;7939;50.814;6.368;2022-10-24T05:15:06;98913.69;;;18.67;60.89
15678;BME280;7939;50.814;6.368;2022-10-24T05:17:34;98921.47;;;18.67;60.78
15678;BME280;7939;50.814;6.368;2022-10-24T05:20:04;98903.41;;;18.65;61.05
15678;BME280;7939;50.814;6.368;2022-10-24T05:22:31;98914.56;;;18.67;60.83
15678;BME280;7939;50.814;6.368;2022-10-24T05:24:58;98921.47;;;18.67;60.88
15678;BME280;7939;50.814;6.368;2022-10-24T05:27:25;98916.28;;;18.67;60.94
15678;BME280;7939;50.814;6.368;2022-10-24T05:29:52;98923.19;;;18.66;61.41
15678;BME280;7939;50.814;6.368;2022-10-24T05:32:20;98918.94;;;18.65;61.28
15678;BME280;7939;50.814;6.368;2022-10-24T05:34:47;98931.09;;;18.63;60.75
15678;BME280;7939;50.814;6.368;2022-10-24T05:37:15;98929.44;;;18.62;61.03
15678;BME280;7939;50.814;6.368;2022-10-24T05:39:42;98932.03;;;18.62;61.04
15678;BME280;7939;50.814;6.368;2022-10-24T05:42:08;98922.63;;;18.59;61.32
15678;BME280;7939;50.814;6.368;2022-10-24T05:44:36;98930.41;;;18.59;61.33
15678;BME280;7939;50.814;6.368;2022-10-24T05:47:02;98928.66;;;18.60;61.73
15678;BME280;7939;50.814;6.368;2022-10-24T05:49:30;98925.22;;;18.59;60.98
15678;BME280;7939;50.814;6.368;2022-10-24T05:51:56;98938.16;;;18.59;60.82
15678;BME280;7939;50.814;6.368;2022-10-24T05:54:24;98929.56;;;18.59;60.93
15678;BME280;7939;50.814;6.368;2022-10-24T05:56:51;98937.31;;;18.59;61.23
15678;BME280;7939;50.814;6.368;2022-10-24T05:59:17;98935.66;;;18.58;61.01
15678;BME280;7939;50.814;6.368;2022-10-24T06:01:44;98940.06;;;18.56;60.52
15678;BME280;7939;50.814;6.368;2022-10-24T06:04:11;98932.31;;;18.56;61.28
15678;BME280;7939;50.814;6.368;2022-10-24T06:06:38;98936.66;;;18.55;60.15
15678;BME280;7939;50.814;6.368;2022-10-24T06:09:06;98939.28;;;18.54;60.55
15678;BME280;7939;50.814;6.368;2022-10-24T06:11:34;98951.34;;;18.55;60.29
15678;BME280;7939;50.814;6.368;2022-10-24T06:14:01;98943.63;;;18.53;60.28
15678;BME280;7939;50.814;6.368;2022-10-24T06:16:29;98949.63;;;18.54;60.56
15678;BME280;7939;50.814;6.368;2022-10-24T06:18:55;98961.69;;;18.55;60.78
15678;BME280;7939;50.814;6.368;2022-10-24T06:21:22;98966.91;;;18.53;60.06
15678;BME280;7939;50.814;6.368;2022-10-24T06:23:49;98975.59;;;18.52;60.09
15678;BME280;7939;50.814;6.368;2022-10-24T06:26:15;98988.53;;;18.52;59.91
15678;BME280;7939;50.814;6.368;2022-10-24T06:28:44;98974.75;;;18.52;60.48
15678;BME280;7939;50.814;6.368;2022-10-24T06:31:11;98966.16;;;18.51;60.57
15678;BME280;7939;50.814;6.368;2022-10-24T06:33:38;98982.50;;;18.52;60.94
15678;BME280;7939;50.814;6.368;2022-10-24T06:36:06;98979.09;;;18.51;61.41
15678;BME280;7939;50.814;6.368;2022-10-24T06:38:34;98967.91;;;18.51;60.92
15678;BME280;7939;50.814;6.368;2022-10-24T06:41:04;98971.41;;;18.50;61.55
15678;BME280;7939;50.814;6.368;2022-10-24T06:43:31;98973.06;;;18.51;61.00
15678;BME280;7939;50.814;6.368;2022-10-24T06:45:59;98975.66;;;18.51;61.11
15678;BME280;7939;50.814;6.368;2022-10-24T06:48:26;98988.69;;;18.49;61.55
15678;BME280;7939;50.814;6.368;2022-10-24T06:50:52;98997.28;;;18.50;61.13
15678;BME280;7939;50.814;6.368;2022-10-24T06:53:19;99000.81;;;18.47;60.73
15678;BME280;7939;50.814;6.368;2022-10-24T06:55:46;98992.19;;;18.48;61.22
15678;BME280;7939;50.814;6.368;2022-10-24T06:58:13;98999.97;;;18.47;61.12
15678;BME280;7939;50.814;6.368;2022-10-24T07:00:39;98995.66;;;18.47;60.87
15678;BME280;7939;50.814;6.368;2022-10-24T07:03:10;99010.28;;;18.48;60.74
15678;BME280;7939;50.814;6.368;2022-10-24T07:05:39;99012.00;;;18.48;60.62
15678;BME280;7939;50.814;6.368;2022-10-24T07:08:06;99009.41;;;18.48;61.10
15678;BME280;7939;50.814;6.368;2022-10-24T07:10:33;99015.50;;;18.47;60.57
15678;BME280;7939;50.814;6.368;2022-10-24T07:12:59;99018.94;;;18.47;60.51
15678;BME280;7939;50.814;6.368;2022-10-24T07:15:26;99024.09;;;18.47;60.83
15678;BME280;7939;50.814;6.368;2022-10-24T07:17:53;99030.19;;;18.46;60.32
15678;BME280;7939;50.814;6.368;2022-10-24T07:20:21;99026.69;;;18.47;61.16
15678;BME280;7939;50.814;6.368;2022-10-24T07:22:47;99043.06;;;18.48;60.65
15678;BME280;7939;50.814;6.368;2022-10-24T07:25:14;99036.28;;;18.45;60.47
15678;BME280;7939;50.814;6.368;2022-10-24T07:27:41;99049.97;;;18.47;60.95
15678;BME280;7939;50.814;6.368;2022-10-24T07:30:12;99049.13;;;18.47;60.75
15678;BME280;7939;50.814;6.368;2022-10-24T07:32:40;99033.56;;;18.48;60.74
15678;BME280;7939;50.814;6.368;2022-10-24T07:35:10;99039.63;;;18.47;60.38
15678;BME280;7939;50.814;6.368;2022-10-24T07:37:38;99026.66;;;18.49;61.13
15678;BME280;7939;50.814;6.368;2022-10-24T07:40:06;99038.75;;;18.48;60.45
15678;BME280;7939;50.814;6.368;2022-10-24T07:42:33;99036.09;;;18.50;60.89
15678;BME280;7939;50.814;6.368;2022-10-24T07:44:59;99043.84;;;18.50;61.13
15678;BME280;7939;50.814;6.368;2022-10-24T07:47:27;99061.03;;;18.51;61.44
15678;BME280;7939;50.814;6.368;2022-10-24T07:49:53;99051.53;;;18.51;61.33
15678;BME280;7939;50.814;6.368;2022-10-24T07:52:20;99049.03;;;18.50;61.32
15678;BME280;7939;50.814;6.368;2022-10-24T07:54:48;99060.22;;;18.50;60.89
15678;BME280;7939;50.814;6.368;2022-10-24T07:57:15;99061.13;;;18.49;60.50
15678;BME280;7939;50.814;6.368;2022-10-24T07:59:41;99048.94;;;18.51;60.83
15678;BME280;7939;50.814;6.368;2022-10-24T08:02:10;99049.78;;;18.52;60.13
15678;BME280;7939;50.814;6.368;2022-10-24T08:04:36;99039.34;;;18.53;60.02
15678;BME280;7939;50.814;6.368;2022-10-24T08:07:03;99037.69;;;18.52;60.80
15678;BME280;7939;50.814;6.368;2022-10-24T08:09:36;99026.31;;;18.56;60.10
15678;BME280;7939;50.814;6.368;2022-10-24T08:12:04;99033.22;;;18.56;59.72
15678;BME280;7939;50.814;6.368;2022-10-24T08:14:31;99042.78;;;18.54;60.23
15678;BME280;7939;50.814;6.368;2022-10-24T08:16:57;99040.00;;;18.58;60.40
15678;BME280;7939;50.814;6.368;2022-10-24T08:19:24;99037.41;;;18.58;59.93
15678;BME280;7939;50.814;6.368;2022-10-24T08:21:50;99038.25;;;18.59;59.98
15678;BME280;7939;50.814;6.368;2022-10-24T08:24:17;99043.38;;;18.60;59.91
15678;BME280;7939;50.814;6.368;2022-10-24T08:26:44;99033.03;;;18.60;59.41
15678;BME280;7939;50.814;6.368;2022-10-24T08:29:12;99050.28;;;18.60;59.41
15678;BME280;7939;50.814;6.368;2022-10-24T08:31:39;99045.19;;;18.58;59.84
15678;BME280;7939;50.814;6.368;2022-10-24T08:34:06;99053.72;;;18.60;59.59
15678;BME280;7939;50.814;6.368;2022-10-24T08:36:34;99046.00;;;18.59;59.80
15678;BME280;7939;50.814;6.368;2022-10-24T08:39:01;99041.69;;;18.59;59.71
15678;BME280;7939;50.814;6.368;2022-10-24T08:41:30;99050.28;;;18.60;59.20
15678;BME280;7939;50.814;6.368;2022-10-24T08:44:00;99045.91;;;18.62;59.87
15678;BME280;7939;50.814;6.368;2022-10-24T08:46:51;99046.66;;;18.64;59.63
15678;BME280;7939;50.814;6.368;2022-10-24T08:49:28;99053.50;;;18.65;60.16
15678;BME280;7939;50.814;6.368;2022-10-24T08:51:58;99043.97;;;18.67;59.93
15678;BME280;7939;50.814;6.368;2022-10-24T08:54:30;99059.53;;;18.66;60.11
15678;BME280;7939;50.814;6.368;2022-10-24T08:57:01;99051.66;;;18.69;58.97
15678;BME280;7939;50.814;6.368;2022-10-24T08:59:29;99058.50;;;18.70;59.75
15678;BME280;7939;50.814;6.368;2022-10-24T09:01:59;99048.09;;;18.71;59.00
15678;BME280;7939;50.814;6.368;2022-10-24T09:04:32;99048.88;;;18.73;59.83
15678;BME280;7939;50.814;6.368;2022-10-24T09:07:01;99058.44;;;18.71;59.38
15678;BME280;7939;50.814;6.368;2022-10-24T09:09:33;99044.47;;;18.94;60.48
15678;BME280;7939;50.814;6.368;2022-10-24T09:12:05;99051.38;;;19.12;59.96
15678;BME280;7939;50.814;6.368;2022-10-24T09:14:36;99050.97;;;19.03;57.55
15678;BME280;7939;50.814;6.368;2022-10-24T09:17:10;99053.47;;;19.04;57.47
15678;BME280;7939;50.814;6.368;2022-10-24T09:19:38;99066.50;;;19.03;58.54
15678;BME280;7939;50.814;6.368;2022-10-24T09:22:06;99069.16;;;19.01;57.96
15678;BME280;7939;50.814;6.368;2022-10-24T09:24:38;99060.56;;;19.01;58.09
15678;BME280;7939;50.814;6.368;2022-10-24T09:27:10;99076.00;;;19.02;58.50
15678;BME280;7939;50.814;6.368;2022-10-24T09:29:39;99075.09;;;19.03;58.19
15678;BME280;7939;50.814;6.368;2022-10-24T09:32:13;99076.84;;;19.03;58.44
15678;BME280;7939;50.814;6.368;2022-10-24T09:34:41;99082.03;;;19.03;58.08
15678;BME280;7939;50.814;6.368;2022-10-24T09:37:27;99069.88;;;19.05;58.60
15678;BME280;7939;50.814;6.368;2022-10-24T09:40:04;99088.00;;;19.05;58.10
15678;BME280;7939;50.814;6.368;2022-10-24T09:42:31;99082.75;;;19.06;58.68
15678;BME280;7939;50.814;6.368;2022-10-24T09:44:58;99082.81;;;19.05;58.76
15678;BME280;7939;50.814;6.368;2022-10-24T09:47:28;99086.09;;;19.08;58.80
15678;BME280;7939;50.814;6.368;2022-10-24T09:49:54;99101.72;;;19.07;58.49
15678;BME280;7939;50.814;6.368;2022-10-24T09:52:23;99095.53;;;19.09;58.31
15678;BME280;7939;50.814;6.368;2022-10-24T09:55:05;99104.16;;;19.10;58.24
15678;BME280;7939;50.814;6.368;2022-10-24T09:57:37;99098.13;;;19.09;58.54
15678;BME280;7939;50.814;6.368;2022-10-24T10:00:05;99116.06;;;19.14;58.07
15678;BME280;7939;50.814;6.368;2022-10-24T10:02:33;99117.66;;;19.17;58.32
15678;BME280;7939;50.814;6.368;2022-10-24T10:05:18;99126.28;;;19.17;58.22
15678;BME280;7939;50.814;6.368;2022-10-24T10:07:46;99115.84;;;19.19;57.91
15678;BME280;7939;50.814;6.368;2022-10-24T10:10:27;99129.50;;;19.22;58.02
15678;BME280;7939;50.814;6.368;2022-10-24T10:12:57;99145.03;;;19.22;58.22
15678;BME280;7939;50.814;6.368;2022-10-24T10:15:28;99150.22;;;19.22;57.97
15678;BME280;7939;50.814;6.368;2022-10-24T10:17:59;99143.28;;;19.23;57.87
15678;BME280;7939;50.814;6.368;2022-10-24T10:20:30;99132.91;;;19.23;57.84
15678;BME280;7939;50.814;6.368;2022-10-24T10:23:15;99133.75;;;19.23;57.71
15678;BME280;7939;50.814;6.368;2022-10-24T10:25:42;99145.75;;;19.26;57.94
15678;BME280;7939;50.814;6.368;2022-10-24T10:28:18;99158.69;;;19.26;57.80
15678;BME280;7939;50.814;6.368;2022-10-24T10:30:48;99154.28;;;19.28;58.05
15678;BME280;7939;50.814;6.368;2022-10-24T10:33:22;99156.03;;;19.27;58.60
15678;BME280;7939;50.814;6.368;2022-10-24T10:35:57;99150.09;;;19.25;57.96
15678;BME280;7939;50.814;6.368;2022-10-24T10:38:40;99158.63;;;19.27;58.33
15678;BME280;7939;50.814;6.368;2022-10-24T10:41:17;99166.59;;;19.23;57.74
15678;BME280;7939;50.814;6.368;2022-10-24T10:43:54;99155.94;;;19.29;57.73
15678;BME280;7939;50.814;6.368;2022-10-24T10:46:30;99164.56;;;19.29;57.96
15678;BME280;7939;50.814;6.368;2022-10-24T10:49:07;99187.75;;;19.32;58.04
15678;BME280;7939;50.814;6.368;2022-10-24T10:51:41;99171.22;;;19.35;58.27
15678;BME280;7939;50.814;6.368;2022-10-24T10:54:21;99174.44;;;19.40;57.92
15678;BME280;7939;50.814;6.368;2022-10-24T10:56:52;99184.06;;;19.38;58.16
15678;BME280;7939;50.814;6.368;2022-10-24T10:59:33;99181.38;;;19.39;58.20
15678;BME280;7939;50.814;6.368;2022-10-24T11:02:16;99189.09;;;19.41;58.32
15678;BME280;7939;50.814;6.368;2022-10-24T11:04:53;99185.66;;;19.40;57.94
15678;BME280;7939;50.814;6.368;2022-10-24T11:07:28;99184.81;;;19.40;58.06
15678;BME280;7939;50.814;6.368;2022-10-24T11:10:02;99187.31;;;19.41;58.27
15678;BME280;7939;50.814;6.368;2022-10-24T11:12:32;99193.34;;;19.42;58.23
15678;BME280;7939;50.814;6.368;2022-10-24T11:15:03;99188.88;;;19.46;58.15
15678;BME280;7939;50.814;6.368;2022-10-24T11:17:38;99205.19;;;19.48;57.78
15678;BME280;7939;50.814;6.368;2022-10-24T11:20:15;99206.03;;;19.48;57.91
15678;BME280;7939;50.814;6.368;2022-10-24T11:22:47;99201.72;;;19.49;58.21
15678;BME280;7939;50.814;6.368;2022-10-24T11:25:20;99201.84;;;19.46;58.35
15678;BME280;7939;50.814;6.368;2022-10-24T11:27:54;99188.97;;;19.44;57.96
15678;BME280;7939;50.814;6.368;2022-10-24T11:30:38;99200.09;;;19.46;58.26
15678;BME280;7939;50.814;6.368;2022-10-24T11:33:14;99200.84;;;19.48;58.14
15678;BME280;7939;50.814;6.368;2022-10-24T11:35:59;99204.34;;;19.47;58.17
15678;BME280;7939;50.814;6.368;2022-10-24T11:38:28;99215.50;;;19.49;57.93
15678;BME280;7939;50.814;6.368;2022-10-24T11:41:11;99201.00;;;19.45;57.98
15678;BME280;7939;50.814;6.368;2022-10-24T11:43:41;99203.38;;;19.50;58.09
15678;BME280;7939;50.814;6.368;2022-10-24T11:46:14;99227.56;;;19.50;57.41
15678;BME280;7939;50.814;6.368;2022-10-24T11:48:47;99221.44;;;19.51;57.63
15678;BME280;7939;50.814;6.368;2022-10-24T11:51:22;99222.28;;;19.52;57.60
15678;BME280;7939;50.814;6.368;2022-10-24T11:53:54;99217.09;;;19.52;57.54
15678;BME280;7939;50.814;6.368;2022-10-24T11:56:26;99221.44;;;19.51;57.76
15678;BME280;7939;50.814;6.368;2022-10-24T11:58:57;99223.13;;;19.52;57.72
15678;BME280;7939;50.814;6.368;2022-10-24T12:01:49;99217.03;;;19.53;57.61
15678;BME280;7939;50.814;6.368;2022-10-24T12:04:38;99216.97;;;19.55;57.63
15678;BME280;7939;50.814;6.368;2022-10-24T12:07:30;99220.41;;;19.55;57.50
15678;BME280;7939;50.814;6.368;2022-10-24T12:10:26;99229.81;;;19.58;57.83
15678;BME280;7939;50.814;6.368;2022-10-24T12:13:20;99228.19;;;19.55;57.56
15678;BME280;7939;50.814;6.368;2022-10-24T12:15:55;99229.94;;;19.55;57.88
15678;BME280;7939;50.814;6.368;2022-10-24T12:18:28;99216.91;;;19.56;57.94
15678;BME280;7939;50.814;6.368;2022-10-24T12:21:01;99216.00;;;19.57;58.46
15678;BME280;7939;50.814;6.368;2022-10-24T12:23:30;99216.91;;;19.56;57.86
15678;BME280;7939;50.814;6.368;2022-10-24T12:26:02;99222.09;;;19.56;58.18
15678;BME280;7939;50.814;6.368;2022-10-24T12:28:29;99231.53;;;19.57;58.31
15678;BME280;7939;50.814;6.368;2022-10-24T12:31:09;99234.00;;;19.60;57.71
15678;BME280;7939;50.814;6.368;2022-10-24T12:33:37;99229.75;;;19.59;57.90
15678;BME280;7939;50.814;6.368;2022-10-24T12:36:04;99234.13;;;19.57;58.19
15678;BME280;7939;50.814;6.368;2022-10-24T12:39:05;99224.63;;;19.58;57.98
15678;BME280;7939;50.814;6.368;2022-10-24T12:41:39;99232.41;;;19.58;58.06
15678;BME280;7939;50.814;6.368;2022-10-24T12:47:34;99214.19;;;19.59;58.10
15678;BME280;7939;50.814;6.368;2022-10-24T12:53:18;99232.34;;;19.59;57.59
15678;BME280;7939;50.814;6.368;2022-10-24T12:56:07;99220.16;;;19.61;57.84
15678;BME280;7939;50.814;6.368;2022-10-24T12:58:35;99231.28;;;19.63;58.09
15678;BME280;7939;50.814;6.368;2022-10-24T13:01:04;99225.28;;;19.63;58.15
15678;BME280;7939;50.814;6.368;2022-10-24T13:03:54;99225.34;;;19.61;58.18
15678;BME280;7939;50.814;6.368;2022-10-24T13:06:27;99205.44;;;19.62;58.04
15678;BME280;7939;50.814;6.368;2022-10-24T13:09:09;99202.84;;;19.62;57.81
15678;BME280;7939;50.814;6.368;2022-10-24T13:11:53;99199.28;;;19.64;58.06
15678;BME280;7939;50.814;6.368;2022-10-24T13:14:37;99202.78;;;19.63;57.85
15678;BME280;7939;50.814;6.368;2022-10-24T13:17:15;99205.38;;;19.63;57.75
15678;BME280;7939;50.814;6.368;2022-10-24T13:19:44;99202.69;;;19.65;57.88
15678;BME280;7939;50.814;6.368;2022-10-24T13:22:26;99199.19;;;19.66;57.96
15678;BME280;7939;50.814;6.368;2022-10-24T13:24:54;99184.47;;;19.66;57.59
15678;BME280;7939;50.814;6.368;2022-10-24T13:27:30;99182.81;;;19.65;57.80
15678;BME280;7939;50.814;6.368;2022-10-24T13:33:30;99191.38;;;19.67;57.79
15678;BME280;7939;50.814;6.368;2022-10-24T13:36:10;99193.03;;;19.69;58.06
15678;BME280;7939;50.814;6.368;2022-10-24T13:38:40;99201.66;;;19.69;57.96